sensor_id;sensor_type;location;lat;lon;timestamp;temperature;humidity
27200;DHT22;14714;48.106;11.546;2023-03-14T00:00:48;10.40;99.90
27200;DHT22;14714;48.106;11.546;2023-03-14T00:03:15;10.30;99.90
27200;DHT22;14714;48.106;11.546;2023-03-14T00:05:41;10.30;99.90
27200;DHT22;14714;48.106;11.546;2023-03-14T00:08:08;10.30;99.90
27200;DHT22;14714;48.106;11.546;2023-03-14T00:10:35;10.20;99.90
27200;DHT22;14714;48.106;11.546;2023-03-14T00:13:02;10.20;99.90
27200;DHT22;14714;48.106;11.546;2023-03-14T00:15:29;10.10;99.90
27200;DHT22;14714;48.106;11.546;2023-03-14T00:17:55;10.10;99.90
27200;DHT22;14714;48.106;11.546;2023-03-14T00:20:22;10.00;99.90
27200;DHT22;14714;48.106;11.546;2023-03-14T00:22:49;9.90;99.90
27200;DHT22;14714;48.106;11.546;2023-03-14T00:25:15;10.00;99.90
27200;DHT22;14714;48.106;11.546;2023-03-14T00:27:42;9.90;99.90
27200;DHT22;14714;48.106;11.546;2023-03-14T00:30:09;9.90;99.90
27200;DHT22;14714;48.106;11.546;2023-03-14T00:32:36;9.90;99.90
27200;DHT22;14714;48.106;11.546;2023-03-14T00:35:03;9.90;99.90
27200;DHT22;14714;48.106;11.546;2023-03-14T00:37:30;9.90;99.90
27200;DHT22;14714;48.106;11.546;2023-03-14T00:39:56;9.90;99.90
27200;DHT22;14714;48.106;11.546;2023-03-14T00:42:24;10.00;99.90
27200;DHT22;14714;48.106;11.546;2023-03-14T00:44:51;10.00;99.90
27200;DHT22;14714;48.106;11.546;2023-03-14T00:47:18;10.00;99.90
27200;DHT22;14714;48.106;11.546;2023-03-14T00:49:44;10.10;99.90
27200;DHT22;14714;48.106;11.546;2023-03-14T00:52:11;10.10;99.90
27200;DHT22;14714;48.106;11.546;2023-03-14T00:54:38;10.10;99.90
27200;DHT22;14714;48.106;11.546;2023-03-14T00:57:04;10.20;99.90
27200;DHT22;14714;48.106;11.546;2023-03-14T00:59:31;10.20;99.90
27200;DHT22;14714;48.106;11.546;2023-03-14T01:01:58;10.20;99.90
27200;DHT22;14714;48.106;11.546;2023-03-14T01:04:24;10.20;99.90
27200;DHT22;14714;48.106;11.546;2023-03-14T01:06:51;10.30;99.90
27200;DHT22;14714;48.106;11.546;2023-03-14T01:09:18;10.30;99.90
27200;DHT22;14714;48.106;11.546;2023-03-14T01:11:44;10.30;99.90
27200;DHT22;14714;48.106;11.546;2023-03-14T01:14:13;10.30;99.90
27200;DHT22;14714;48.106;11.546;2023-03-14T01:16:40;10.30;99.90
27200;DHT22;14714;48.106;11.546;2023-03-14T01:19:06;10.30;99.90
27200;DHT22;14714;48.106;11.546;2023-03-14T01:21:34;10.30;99.90
27200;DHT22;14714;48.106;11.546;2023-03-14T01:24:02;10.30;99.90
27200;DHT22;14714;48.106;11.546;2023-03-14T01:26:30;10.30;99.90
27200;DHT22;14714;48.106;11.546;2023-03-14T01:28:57;10.20;99.90
27200;DHT22;14714;48.106;11.546;2023-03-14T01:31:24;10.20;99.90
27200;DHT22;14714;48.106;11.546;2023-03-14T01:33:51;10.10;99.90
27200;DHT22;14714;48.106;11.546;2023-03-14T01:36:18;10.10;99.90
27200;DHT22;14714;48.106;11.546;2023-03-14T01:38:45;10.00;99.90
27200;DHT22;14714;48.106;11.546;2023-03-14T01:41:13;10.00;99.90
27200;DHT22;14714;48.106;11.546;2023-03-14T01:43:40;10.00;99.90
27200;DHT22;14714;48.106;11.546;2023-03-14T01:48:39;9.90;99.90
27200;DHT22;14714;48.106;11.546;2023-03-14T01:51:08;9.90;99.90
27200;DHT22;14714;48.106;11.546;2023-03-14T01:53:36;9.90;99.90
27200;DHT22;14714;48.106;11.546;2023-03-14T01:56:03;9.90;99.90
27200;DHT22;14714;48.106;11.546;2023-03-14T01:58:30;9.90;99.90
27200;DHT22;14714;48.106;11.546;2023-03-14T02:01:00;9.90;99.90
27200;DHT22;14714;48.106;11.546;2023-03-14T02:03:28;9.90;99.90
27200;DHT22;14714;48.106;11.546;2023-03-14T02:05:55;9.80;99.90
27200;DHT22;14714;48.106;11.546;2023-03-14T02:08:23;9.80;99.90
27200;DHT22;14714;48.106;11.546;2023-03-14T02:10:50;9.80;99.90
27200;DHT22;14714;48.106;11.546;2023-03-14T02:13:18;9.80;99.90
27200;DHT22;14714;48.106;11.546;2023-03-14T02:15:45;9.70;99.90
27200;DHT22;14714;48.106;11.546;2023-03-14T02:18:12;9.70;99.90
27200;DHT22;14714;48.106;11.546;2023-03-14T02:20:53;9.70;99.90
27200;DHT22;14714;48.106;11.546;2023-03-14T02:24:12;9.60;99.90
27200;DHT22;14714;48.106;11.546;2023-03-14T02:26:20;9.60;99.90
27200;DHT22;14714;48.106;11.546;2023-03-14T02:28:48;9.50;99.90
27200;DHT22;14714;48.106;11.546;2023-03-14T02:31:16;9.40;99.90
27200;DHT22;14714;48.106;11.546;2023-03-14T02:33:43;9.40;99.90
27200;DHT22;14714;48.106;11.546;2023-03-14T02:36:11;9.30;99.90
27200;DHT22;14714;48.106;11.546;2023-03-14T02:38:53;9.30;99.90
27200;DHT22;14714;48.106;11.546;2023-03-14T02:41:21;9.30;99.90
27200;DHT22;14714;48.106;11.546;2023-03-14T02:43:50;9.20;99.90
27200;DHT22;14714;48.106;11.546;2023-03-14T02:46:18;9.20;99.90
27200;DHT22;14714;48.106;11.546;2023-03-14T02:51:12;9.20;99.90
27200;DHT22;14714;48.106;11.546;2023-03-14T02:53:40;9.10;99.90
27200;DHT22;14714;48.106;11.546;2023-03-14T02:56:08;9.10;99.90
27200;DHT22;14714;48.106;11.546;2023-03-14T02:58:35;9.10;99.90
27200;DHT22;14714;48.106;11.546;2023-03-14T03:01:02;9.10;99.90
27200;DHT22;14714;48.106;11.546;2023-03-14T03:03:29;9.10;99.90
27200;DHT22;14714;48.106;11.546;2023-03-14T03:05:56;9.10;99.90
27200;DHT22;14714;48.106;11.546;2023-03-14T03:08:23;9.10;99.90
27200;DHT22;14714;48.106;11.546;2023-03-14T03:10:50;9.00;99.90
27200;DHT22;14714;48.106;11.546;2023-03-14T03:13:17;9.00;99.90
27200;DHT22;14714;48.106;11.546;2023-03-14T03:15:44;9.00;99.90
27200;DHT22;14714;48.106;11.546;2023-03-14T03:18:11;9.00;99.90
27200;DHT22;14714;48.106;11.546;2023-03-14T03:20:38;8.90;99.90
27200;DHT22;14714;48.106;11.546;2023-03-14T03:23:04;8.90;99.90
27200;DHT22;14714;48.106;11.546;2023-03-14T03:25:31;8.90;99.90
27200;DHT22;14714;48.106;11.546;2023-03-14T03:27:58;8.90;99.90
27200;DHT22;14714;48.106;11.546;2023-03-14T03:30:25;8.80;99.90
27200;DHT22;14714;48.106;11.546;2023-03-14T03:32:51;8.80;99.90
27200;DHT22;14714;48.106;11.546;2023-03-14T03:35:18;8.80;99.90
27200;DHT22;14714;48.106;11.546;2023-03-14T03:37:45;8.80;99.90
27200;DHT22;14714;48.106;11.546;2023-03-14T03:40:11;8.80;99.90
27200;DHT22;14714;48.106;11.546;2023-03-14T03:42:38;8.80;99.90
27200;DHT22;14714;48.106;11.546;2023-03-14T03:45:05;8.70;99.90
27200;DHT22;14714;48.106;11.546;2023-03-14T03:47:31;8.70;99.90
27200;DHT22;14714;48.106;11.546;2023-03-14T03:49:58;8.80;99.90
27200;DHT22;14714;48.106;11.546;2023-03-14T03:52:25;8.70;99.90
27200;DHT22;14714;48.106;11.546;2023-03-14T03:54:51;8.70;99.90
27200;DHT22;14714;48.106;11.546;2023-03-14T03:57:18;8.70;99.90
27200;DHT22;14714;48.106;11.546;2023-03-14T03:59:45;8.60;99.90
27200;DHT22;14714;48.106;11.546;2023-03-14T04:02:11;8.60;99.90
27200;DHT22;14714;48.106;11.546;2023-03-14T04:04:38;8.60;99.90
27200;DHT22;14714;48.106;11.546;2023-03-14T04:07:05;8.60;99.90
27200;DHT22;14714;48.106;11.546;2023-03-14T04:09:32;8.60;99.90
27200;DHT22;14714;48.106;11.546;2023-03-14T04:11:58;8.60;99.90
27200;DHT22;14714;48.106;11.546;2023-03-14T04:14:25;8.60;99.90
27200;DHT22;14714;48.106;11.546;2023-03-14T04:16:52;8.60;99.90
27200;DHT22;14714;48.106;11.546;2023-03-14T04:19:19;8.50;99.90
27200;DHT22;14714;48.106;11.546;2023-03-14T04:21:46;8.50;99.90
27200;DHT22;14714;48.106;11.546;2023-03-14T04:24:13;8.50;99.90
27200;DHT22;14714;48.106;11.546;2023-03-14T04:26:40;8.40;99.90
27200;DHT22;14714;48.106;11.546;2023-03-14T04:29:07;8.50;99.90
27200;DHT22;14714;48.106;11.546;2023-03-14T04:31:33;8.40;99.90
27200;DHT22;14714;48.106;11.546;2023-03-14T04:34:00;8.40;99.90
27200;DHT22;14714;48.106;11.546;2023-03-14T04:36:27;8.40;99.90
27200;DHT22;14714;48.106;11.546;2023-03-14T04:38:53;8.40;99.90
27200;DHT22;14714;48.106;11.546;2023-03-14T04:41:20;8.40;99.90
27200;DHT22;14714;48.106;11.546;2023-03-14T04:43:46;8.40;99.90
27200;DHT22;14714;48.106;11.546;2023-03-14T04:46:13;8.40;99.90
27200;DHT22;14714;48.106;11.546;2023-03-14T04:48:40;8.30;99.90
27200;DHT22;14714;48.106;11.546;2023-03-14T04:51:07;8.40;99.90
27200;DHT22;14714;48.106;11.546;2023-03-14T04:53:33;8.30;99.90
27200;DHT22;14714;48.106;11.546;2023-03-14T04:56:00;8.30;99.90
27200;DHT22;14714;48.106;11.546;2023-03-14T04:58:27;8.30;99.90
27200;DHT22;14714;48.106;11.546;2023-03-14T05:00:54;8.30;99.90
27200;DHT22;14714;48.106;11.546;2023-03-14T05:03:20;8.30;99.90
27200;DHT22;14714;48.106;11.546;2023-03-14T05:05:47;8.30;99.90
27200;DHT22;14714;48.106;11.546;2023-03-14T05:08:14;8.30;99.90
27200;DHT22;14714;48.106;11.546;2023-03-14T05:10:40;8.30;99.90
27200;DHT22;14714;48.106;11.546;2023-03-14T05:13:07;8.30;99.90
27200;DHT22;14714;48.106;11.546;2023-03-14T05:15:34;8.20;99.90
27200;DHT22;14714;48.106;11.546;2023-03-14T05:18:00;8.30;99.90
27200;DHT22;14714;48.106;11.546;2023-03-14T05:20:27;8.20;99.90
27200;DHT22;14714;48.106;11.546;2023-03-14T05:22:54;8.20;99.90
27200;DHT22;14714;48.106;11.546;2023-03-14T05:25:20;8.20;99.90
27200;DHT22;14714;48.106;11.546;2023-03-14T05:27:47;8.20;99.90
27200;DHT22;14714;48.106;11.546;2023-03-14T05:30:14;8.20;99.90
27200;DHT22;14714;48.106;11.546;2023-03-14T05:32:40;8.20;99.90
27200;DHT22;14714;48.106;11.546;2023-03-14T05:35:07;8.20;99.90
27200;DHT22;14714;48.106;11.546;2023-03-14T05:37:34;8.20;99.90
27200;DHT22;14714;48.106;11.546;2023-03-14T05:40:01;8.20;99.90
27200;DHT22;14714;48.106;11.546;2023-03-14T05:42:27;8.20;99.90
27200;DHT22;14714;48.106;11.546;2023-03-14T05:44:54;8.10;99.90
27200;DHT22;14714;48.106;11.546;2023-03-14T05:47:21;8.20;99.90
27200;DHT22;14714;48.106;11.546;2023-03-14T05:49:47;8.10;99.90
27200;DHT22;14714;48.106;11.546;2023-03-14T05:52:14;8.10;99.90
27200;DHT22;14714;48.106;11.546;2023-03-14T05:54:41;8.10;99.90
27200;DHT22;14714;48.106;11.546;2023-03-14T05:57:08;8.10;99.90
27200;DHT22;14714;48.106;11.546;2023-03-14T05:59:35;8.10;99.90
27200;DHT22;14714;48.106;11.546;2023-03-14T06:02:01;8.10;99.90
27200;DHT22;14714;48.106;11.546;2023-03-14T06:04:28;8.10;99.90
27200;DHT22;14714;48.106;11.546;2023-03-14T06:06:55;8.10;99.90
27200;DHT22;14714;48.106;11.546;2023-03-14T06:09:21;8.10;99.90
27200;DHT22;14714;48.106;11.546;2023-03-14T06:11:49;8.10;99.90
27200;DHT22;14714;48.106;11.546;2023-03-14T06:14:16;8.10;99.90
27200;DHT22;14714;48.106;11.546;2023-03-14T06:16:43;8.10;99.90
27200;DHT22;14714;48.106;11.546;2023-03-14T06:19:10;8.20;99.90
27200;DHT22;14714;48.106;11.546;2023-03-14T06:21:37;8.20;99.90
27200;DHT22;14714;48.106;11.546;2023-03-14T06:24:04;8.20;99.90
27200;DHT22;14714;48.106;11.546;2023-03-14T06:26:31;8.30;99.90
27200;DHT22;14714;48.106;11.546;2023-03-14T06:28:58;8.30;99.90
27200;DHT22;14714;48.106;11.546;2023-03-14T06:31:29;8.30;99.90
27200;DHT22;14714;48.106;11.546;2023-03-14T06:33:56;8.40;99.90
27200;DHT22;14714;48.106;11.546;2023-03-14T06:36:23;8.40;99.90
27200;DHT22;14714;48.106;11.546;2023-03-14T06:38:50;8.50;99.90
27200;DHT22;14714;48.106;11.546;2023-03-14T06:41:16;8.50;99.90
27200;DHT22;14714;48.106;11.546;2023-03-14T06:43:43;8.60;99.90
27200;DHT22;14714;48.106;11.546;2023-03-14T06:46:10;8.70;99.90
27200;DHT22;14714;48.106;11.546;2023-03-14T06:48:36;8.70;99.90
27200;DHT22;14714;48.106;11.546;2023-03-14T06:51:03;8.80;99.90
27200;DHT22;14714;48.106;11.546;2023-03-14T06:53:30;8.90;99.90
27200;DHT22;14714;48.106;11.546;2023-03-14T06:55:56;9.00;99.90
27200;DHT22;14714;48.106;11.546;2023-03-14T06:58:23;9.00;99.90
27200;DHT22;14714;48.106;11.546;2023-03-14T07:00:50;9.10;99.90
27200;DHT22;14714;48.106;11.546;2023-03-14T07:03:16;9.10;99.90
27200;DHT22;14714;48.106;11.546;2023-03-14T07:05:43;9.10;99.90
27200;DHT22;14714;48.106;11.546;2023-03-14T07:08:10;9.10;99.90
27200;DHT22;14714;48.106;11.546;2023-03-14T07:10:36;9.10;99.90
27200;DHT22;14714;48.106;11.546;2023-03-14T07:13:03;9.10;99.90
27200;DHT22;14714;48.106;11.546;2023-03-14T07:15:30;9.10;99.90
27200;DHT22;14714;48.106;11.546;2023-03-14T07:17:57;9.10;99.90
27200;DHT22;14714;48.106;11.546;2023-03-14T07:20:23;9.20;99.90
27200;DHT22;14714;48.106;11.546;2023-03-14T07:22:50;9.20;99.90
27200;DHT22;14714;48.106;11.546;2023-03-14T07:25:17;9.20;99.90
27200;DHT22;14714;48.106;11.546;2023-03-14T07:27:44;9.20;99.90
27200;DHT22;14714;48.106;11.546;2023-03-14T07:30:11;9.20;99.90
27200;DHT22;14714;48.106;11.546;2023-03-14T07:32:38;9.20;99.90
27200;DHT22;14714;48.106;11.546;2023-03-14T07:35:05;9.20;99.90
27200;DHT22;14714;48.106;11.546;2023-03-14T07:37:33;9.30;99.90
27200;DHT22;14714;48.106;11.546;2023-03-14T07:39:59;9.40;99.90
27200;DHT22;14714;48.106;11.546;2023-03-14T07:42:26;9.40;99.90
27200;DHT22;14714;48.106;11.546;2023-03-14T07:44:52;9.50;99.90
27200;DHT22;14714;48.106;11.546;2023-03-14T07:47:19;9.50;99.90
27200;DHT22;14714;48.106;11.546;2023-03-14T07:49:46;9.60;99.90
27200;DHT22;14714;48.106;11.546;2023-03-14T07:52:12;9.70;99.90
27200;DHT22;14714;48.106;11.546;2023-03-14T07:54:39;9.80;99.90
27200;DHT22;14714;48.106;11.546;2023-03-14T07:57:06;9.90;99.90
27200;DHT22;14714;48.106;11.546;2023-03-14T07:59:32;10.00;99.90
27200;DHT22;14714;48.106;11.546;2023-03-14T08:01:59;10.10;99.90
27200;DHT22;14714;48.106;11.546;2023-03-14T08:04:26;10.20;99.90
27200;DHT22;14714;48.106;11.546;2023-03-14T08:06:53;10.30;99.90
27200;DHT22;14714;48.106;11.546;2023-03-14T08:09:20;10.40;99.90
27200;DHT22;14714;48.106;11.546;2023-03-14T08:11:47;10.50;99.90
27200;DHT22;14714;48.106;11.546;2023-03-14T08:14:14;10.60;99.90
27200;DHT22;14714;48.106;11.546;2023-03-14T08:16:40;10.70;99.90
27200;DHT22;14714;48.106;11.546;2023-03-14T08:19:07;10.70;99.90
27200;DHT22;14714;48.106;11.546;2023-03-14T08:21:34;10.80;99.90
27200;DHT22;14714;48.106;11.546;2023-03-14T08:24:00;10.80;99.90
27200;DHT22;14714;48.106;11.546;2023-03-14T08:26:27;10.80;99.90
27200;DHT22;14714;48.106;11.546;2023-03-14T08:28:54;10.90;99.90
27200;DHT22;14714;48.106;11.546;2023-03-14T08:31:21;10.90;99.90
27200;DHT22;14714;48.106;11.546;2023-03-14T08:33:48;11.00;99.90
27200;DHT22;14714;48.106;11.546;2023-03-14T08:36:14;11.00;99.90
27200;DHT22;14714;48.106;11.546;2023-03-14T08:38:41;11.00;99.90
27200;DHT22;14714;48.106;11.546;2023-03-14T08:41:09;11.00;99.90
27200;DHT22;14714;48.106;11.546;2023-03-14T08:43:36;11.00;99.90
27200;DHT22;14714;48.106;11.546;2023-03-14T08:46:02;11.00;99.90
27200;DHT22;14714;48.106;11.546;2023-03-14T08:48:29;11.00;99.90
27200;DHT22;14714;48.106;11.546;2023-03-14T08:51:03;11.00;99.90
27200;DHT22;14714;48.106;11.546;2023-03-14T08:53:30;11.00;99.90
27200;DHT22;14714;48.106;11.546;2023-03-14T08:55:56;11.00;99.90
27200;DHT22;14714;48.106;11.546;2023-03-14T08:58:23;10.90;99.90
27200;DHT22;14714;48.106;11.546;2023-03-14T09:00:50;10.80;99.90
27200;DHT22;14714;48.106;11.546;2023-03-14T09:03:17;10.80;99.90
27200;DHT22;14714;48.106;11.546;2023-03-14T09:05:44;10.80;99.90
27200;DHT22;14714;48.106;11.546;2023-03-14T09:08:10;10.80;99.90
27200;DHT22;14714;48.106;11.546;2023-03-14T09:10:37;10.80;99.90
27200;DHT22;14714;48.106;11.546;2023-03-14T09:13:05;10.80;99.90
27200;DHT22;14714;48.106;11.546;2023-03-14T09:15:31;10.90;99.90
27200;DHT22;14714;48.106;11.546;2023-03-14T09:17:58;11.00;99.90
27200;DHT22;14714;48.106;11.546;2023-03-14T09:20:25;11.00;99.90
27200;DHT22;14714;48.106;11.546;2023-03-14T09:22:52;11.10;99.90
27200;DHT22;14714;48.106;11.546;2023-03-14T09:25:18;11.10;99.90
27200;DHT22;14714;48.106;11.546;2023-03-14T09:27:45;11.10;99.90
27200;DHT22;14714;48.106;11.546;2023-03-14T09:30:12;11.20;99.90
27200;DHT22;14714;48.106;11.546;2023-03-14T09:32:38;11.10;99.90
27200;DHT22;14714;48.106;11.546;2023-03-14T09:35:05;11.10;99.90
27200;DHT22;14714;48.106;11.546;2023-03-14T09:37:32;11.10;99.90
27200;DHT22;14714;48.106;11.546;2023-03-14T09:39:59;11.00;99.90
27200;DHT22;14714;48.106;11.546;2023-03-14T09:42:26;11.00;99.90
27200;DHT22;14714;48.106;11.546;2023-03-14T09:44:59;11.00;99.90
27200;DHT22;14714;48.106;11.546;2023-03-14T09:47:26;11.00;99.90
27200;DHT22;14714;48.106;11.546;2023-03-14T09:49:53;11.00;99.90
27200;DHT22;14714;48.106;11.546;2023-03-14T09:52:30;11.00;99.90
27200;DHT22;14714;48.106;11.546;2023-03-14T09:55:05;11.10;99.90
27200;DHT22;14714;48.106;11.546;2023-03-14T09:57:33;11.10;99.90
27200;DHT22;14714;48.106;11.546;2023-03-14T10:00:03;11.20;99.90
27200;DHT22;14714;48.106;11.546;2023-03-14T10:02:40;11.20;99.90
27200;DHT22;14714;48.106;11.546;2023-03-14T10:05:18;11.30;99.90
27200;DHT22;14714;48.106;11.546;2023-03-14T10:07:45;11.40;99.90
27200;DHT22;14714;48.106;11.546;2023-03-14T10:12:43;11.50;99.90
27200;DHT22;14714;48.106;11.546;2023-03-14T10:15:12;11.60;99.90
27200;DHT22;14714;48.106;11.546;2023-03-14T10:17:44;11.70;99.90
27200;DHT22;14714;48.106;11.546;2023-03-14T10:20:26;11.80;99.90
27200;DHT22;14714;48.106;11.546;2023-03-14T10:22:55;12.00;99.90
27200;DHT22;14714;48.106;11.546;2023-03-14T10:25:26;12.20;99.90
27200;DHT22;14714;48.106;11.546;2023-03-14T10:27:53;12.80;99.90
27200;DHT22;14714;48.106;11.546;2023-03-14T10:30:27;13.70;99.90
27200;DHT22;14714;48.106;11.546;2023-03-14T10:32:54;14.50;99.90
27200;DHT22;14714;48.106;11.546;2023-03-14T10:35:21;15.00;99.90
27200;DHT22;14714;48.106;11.546;2023-03-14T10:38:02;15.20;99.90
27200;DHT22;14714;48.106;11.546;2023-03-14T10:40:48;15.30;99.90
27200;DHT22;14714;48.106;11.546;2023-03-14T10:43:17;15.40;99.90
27200;DHT22;14714;48.106;11.546;2023-03-14T10:45:44;15.70;98.40
27200;DHT22;14714;48.106;11.546;2023-03-14T10:48:19;15.90;97.40
27200;DHT22;14714;48.106;11.546;2023-03-14T10:50:57;16.10;95.50
27200;DHT22;14714;48.106;11.546;2023-03-14T10:53:24;16.10;94.40
27200;DHT22;14714;48.106;11.546;2023-03-14T10:55:55;15.90;93.30
27200;DHT22;14714;48.106;11.546;2023-03-14T11:00:51;15.20;92.30
27200;DHT22;14714;48.106;11.546;2023-03-14T11:03:18;14.80;93.90
27200;DHT22;14714;48.106;11.546;2023-03-14T11:05:49;14.60;94.10
27200;DHT22;14714;48.106;11.546;2023-03-14T11:08:26;14.40;94.10
27200;DHT22;14714;48.106;11.546;2023-03-14T11:10:54;14.30;95.10
27200;DHT22;14714;48.106;11.546;2023-03-14T11:31:47;14.60;93.50
27200;DHT22;14714;48.106;11.546;2023-03-14T11:36:55;14.90;90.90
27200;DHT22;14714;48.106;11.546;2023-03-14T11:39:26;14.80;91.50
27200;DHT22;14714;48.106;11.546;2023-03-14T11:41:57;14.90;91.00
27200;DHT22;14714;48.106;11.546;2023-03-14T11:44:26;15.10;90.90
27200;DHT22;14714;48.106;11.546;2023-03-14T11:47:02;15.20;90.30
27200;DHT22;14714;48.106;11.546;2023-03-14T11:52:01;15.20;89.80
27200;DHT22;14714;48.106;11.546;2023-03-14T11:57:05;14.90;88.80
27200;DHT22;14714;48.106;11.546;2023-03-14T12:02:10;14.40;90.60
27200;DHT22;14714;48.106;11.546;2023-03-14T12:07:17;14.20;90.80
27200;DHT22;14714;48.106;11.546;2023-03-14T12:09:45;14.20;91.00
27200;DHT22;14714;48.106;11.546;2023-03-14T12:12:14;14.30;91.00
27200;DHT22;14714;48.106;11.546;2023-03-14T12:14:45;14.40;91.30
27200;DHT22;14714;48.106;11.546;2023-03-14T12:17:20;14.50;90.30
27200;DHT22;14714;48.106;11.546;2023-03-14T12:19:47;14.50;90.40
27200;DHT22;14714;48.106;11.546;2023-03-14T12:22:19;14.50;89.80
27200;DHT22;14714;48.106;11.546;2023-03-14T12:24:53;14.40;90.30
27200;DHT22;14714;48.106;11.546;2023-03-14T12:27:41;14.40;90.80
27200;DHT22;14714;48.106;11.546;2023-03-14T12:30:23;14.30;91.40
27200;DHT22;14714;48.106;11.546;2023-03-14T12:43:28;14.30;90.40
27200;DHT22;14714;48.106;11.546;2023-03-14T12:46:29;14.30;90.70
27200;DHT22;14714;48.106;11.546;2023-03-14T12:51:19;14.60;90.30
27200;DHT22;14714;48.106;11.546;2023-03-14T12:56:38;14.70;89.90
27200;DHT22;14714;48.106;11.546;2023-03-14T13:01:44;14.50;89.60
27200;DHT22;14714;48.106;11.546;2023-03-14T13:04:12;14.40;90.00
27200;DHT22;14714;48.106;11.546;2023-03-14T13:06:48;14.20;90.30
27200;DHT22;14714;48.106;11.546;2023-03-14T13:12:00;13.90;90.60
27200;DHT22;14714;48.106;11.546;2023-03-14T13:14:29;13.70;90.90
27200;DHT22;14714;48.106;11.546;2023-03-14T13:16:59;13.60;91.20
27200;DHT22;14714;48.106;11.546;2023-03-14T13:19:49;13.60;92.00
27200;DHT22;14714;48.106;11.546;2023-03-14T13:22:20;13.70;91.70
27200;DHT22;14714;48.106;11.546;2023-03-14T13:24:47;13.70;91.50
27200;DHT22;14714;48.106;11.546;2023-03-14T13:27:17;13.70;91.70
27200;DHT22;14714;48.106;11.546;2023-03-14T13:29:45;13.70;91.70
27200;DHT22;14714;48.106;11.546;2023-03-14T13:32:21;13.60;92.30
27200;DHT22;14714;48.106;11.546;2023-03-14T13:34:48;13.50;92.00
27200;DHT22;14714;48.106;11.546;2023-03-14T13:37:16;13.30;92.30
27200;DHT22;14714;48.106;11.546;2023-03-14T13:39:43;13.20;93.00
27200;DHT22;14714;48.106;11.546;2023-03-14T13:42:15;13.00;92.70
27200;DHT22;14714;48.106;11.546;2023-03-14T13:44:42;12.80;93.50
27200;DHT22;14714;48.106;11.546;2023-03-14T13:47:15;12.60;94.00
27200;DHT22;14714;48.106;11.546;2023-03-14T13:49:42;12.40;94.80
27200;DHT22;14714;48.106;11.546;2023-03-14T13:54:56;11.90;96.70
27200;DHT22;14714;48.106;11.546;2023-03-14T13:57:23;11.60;98.60
27200;DHT22;14714;48.106;11.546;2023-03-14T13:59:59;11.40;99.70
27200;DHT22;14714;48.106;11.546;2023-03-14T14:02:27;11.20;99.90
27200;DHT22;14714;48.106;11.546;2023-03-14T14:04:54;11.00;99.90
27200;DHT22;14714;48.106;11.546;2023-03-14T14:07:22;10.90;99.90
27200;DHT22;14714;48.106;11.546;2023-03-14T14:09:49;10.80;99.90
27200;DHT22;14714;48.106;11.546;2023-03-14T14:12:34;10.60;99.90
27200;DHT22;14714;48.106;11.546;2023-03-14T14:15:04;10.40;99.90
27200;DHT22;14714;48.106;11.546;2023-03-14T14:19:58;10.20;99.90
27200;DHT22;14714;48.106;11.546;2023-03-14T14:22:26;10.00;99.90
27200;DHT22;14714;48.106;11.546;2023-03-14T14:24:53;9.90;99.90
27200;DHT22;14714;48.106;11.546;2023-03-14T14:29:57;9.60;99.90
27200;DHT22;14714;48.106;11.546;2023-03-14T14:32:24;9.40;99.90
27200;DHT22;14714;48.106;11.546;2023-03-14T14:39:47;9.00;99.90
27200;DHT22;14714;48.106;11.546;2023-03-14T14:42:15;8.90;99.90
27200;DHT22;14714;48.106;11.546;2023-03-14T14:44:43;8.80;99.90
27200;DHT22;14714;48.106;11.546;2023-03-14T14:47:14;8.80;99.90
27200;DHT22;14714;48.106;11.546;2023-03-14T14:49:42;8.70;99.90
27200;DHT22;14714;48.106;11.546;2023-03-14T14:52:19;8.70;99.90
27200;DHT22;14714;48.106;11.546;2023-03-14T14:54:53;8.60;99.90
27200;DHT22;14714;48.106;11.546;2023-03-14T14:57:26;8.60;99.90
27200;DHT22;14714;48.106;11.546;2023-03-14T14:59:55;8.50;99.90
27200;DHT22;14714;48.106;11.546;2023-03-14T15:05:01;8.50;99.90
27200;DHT22;14714;48.106;11.546;2023-03-14T15:07:28;8.40;99.90
27200;DHT22;14714;48.106;11.546;2023-03-14T15:09:55;8.50;99.90
27200;DHT22;14714;48.106;11.546;2023-03-14T15:12:21;8.40;99.90
27200;DHT22;14714;48.106;11.546;2023-03-14T15:14:51;8.50;99.90
27200;DHT22;14714;48.106;11.546;2023-03-14T15:17:17;8.60;99.90
27200;DHT22;14714;48.106;11.546;2023-03-14T15:19:44;8.60;99.90
27200;DHT22;14714;48.106;11.546;2023-03-14T15:22:11;8.70;99.90
27200;DHT22;14714;48.106;11.546;2023-03-14T15:24:40;8.60;99.90
27200;DHT22;14714;48.106;11.546;2023-03-14T15:27:13;8.60;99.90
27200;DHT22;14714;48.106;11.546;2023-03-14T15:29:41;8.60;99.90
27200;DHT22;14714;48.106;11.546;2023-03-14T15:32:09;8.50;99.90
27200;DHT22;14714;48.106;11.546;2023-03-14T15:34:37;8.50;99.90
27200;DHT22;14714;48.106;11.546;2023-03-14T15:37:04;8.50;99.90
27200;DHT22;14714;48.106;11.546;2023-03-14T15:39:34;8.40;99.90
27200;DHT22;14714;48.106;11.546;2023-03-14T15:42:01;8.30;99.90
27200;DHT22;14714;48.106;11.546;2023-03-14T15:44:27;8.30;99.90
27200;DHT22;14714;48.106;11.546;2023-03-14T15:46:54;8.20;99.90
27200;DHT22;14714;48.106;11.546;2023-03-14T15:49:21;8.20;99.90
27200;DHT22;14714;48.106;11.546;2023-03-14T15:51:47;8.10;99.90
27200;DHT22;14714;48.106;11.546;2023-03-14T15:54:15;8.00;99.90
27200;DHT22;14714;48.106;11.546;2023-03-14T15:56:41;7.90;99.90
27200;DHT22;14714;48.106;11.546;2023-03-14T15:59:08;7.70;99.90
27200;DHT22;14714;48.106;11.546;2023-03-14T16:01:35;7.60;99.90
27200;DHT22;14714;48.106;11.546;2023-03-14T16:04:02;7.50;99.90
27200;DHT22;14714;48.106;11.546;2023-03-14T16:06:29;7.30;99.90
27200;DHT22;14714;48.106;11.546;2023-03-14T16:08:57;7.20;99.90
27200;DHT22;14714;48.106;11.546;2023-03-14T16:11:24;7.10;99.90
27200;DHT22;14714;48.106;11.546;2023-03-14T16:13:51;7.10;99.90
27200;DHT22;14714;48.106;11.546;2023-03-14T16:16:18;7.00;99.90
27200;DHT22;14714;48.106;11.546;2023-03-14T16:18:45;7.10;99.90
27200;DHT22;14714;48.106;11.546;2023-03-14T16:21:14;7.00;99.90
27200;DHT22;14714;48.106;11.546;2023-03-14T16:23:41;7.10;99.90
27200;DHT22;14714;48.106;11.546;2023-03-14T16:26:12;7.10;99.90
27200;DHT22;14714;48.106;11.546;2023-03-14T16:28:41;7.10;99.90
27200;DHT22;14714;48.106;11.546;2023-03-14T16:31:08;7.20;99.90
27200;DHT22;14714;48.106;11.546;2023-03-14T16:33:36;7.20;99.90
27200;DHT22;14714;48.106;11.546;2023-03-14T16:36:04;7.30;99.90
27200;DHT22;14714;48.106;11.546;2023-03-14T16:38:34;7.20;99.90
27200;DHT22;14714;48.106;11.546;2023-03-14T16:41:02;7.20;99.90
27200;DHT22;14714;48.106;11.546;2023-03-14T16:43:30;7.20;99.90
27200;DHT22;14714;48.106;11.546;2023-03-14T16:45:57;7.20;99.90
27200;DHT22;14714;48.106;11.546;2023-03-14T16:48:26;7.20;99.90